< < Back
Terminal Aerodrome Forecast


Current Version              Previous Versions:   1  2  3  4  5  6  7  8  9  

Terminal Aerodrome Forecast

730
FTUS42 KFFC 300523
TAFFTY
TAF
KFTY 300523Z 3006/3106 00000KT P6SM SKC
     FM301000 00000KT P6SM SCT012
     FM301400 14006KT P6SM SCT035
     FM301900 15006KT P6SM BKN035
     FM310100 00000KT P6SM FEW060=

Latest METAR

181
SAUS70 KWBC 300800 RRF
MTRFTY
METAR KFTY 300753Z 00000KT 10SM FEW055 17/16 A3013 RMK AO2 SLP196
T01670156


USA.gov is the U.S. government's official web portal to all federal, state and local government web resources and services.